sensor_id;sensor_type;location;lat;lon;timestamp;temperature;humidity
30459;DHT22;17254;50.976;7.034;2023-04-06T00:00:06;0.40;99.90
30459;DHT22;17254;50.976;7.034;2023-04-06T00:00:15;0.40;99.90
30459;DHT22;17254;50.976;7.034;2023-04-06T00:00:23;0.40;99.90
30459;DHT22;17254;50.976;7.034;2023-04-06T00:00:29;0.40;99.90
30459;DHT22;17254;50.976;7.034;2023-04-06T00:00:35;0.40;99.90
30459;DHT22;17254;50.976;7.034;2023-04-06T00:00:41;0.40;99.90
30459;DHT22;17254;50.976;7.034;2023-04-06T00:00:48;0.40;99.90
30459;DHT22;17254;50.976;7.034;2023-04-06T00:00:54;0.40;99.90
30459;DHT22;17254;50.976;7.034;2023-04-06T00:01:03;0.40;99.90
30459;DHT22;17254;50.976;7.034;2023-04-06T00:01:09;0.40;99.90
30459;DHT22;17254;50.976;7.034;2023-04-06T00:01:15;0.40;99.90
30459;DHT22;17254;50.976;7.034;2023-04-06T00:01:21;0.40;99.90
30459;DHT22;17254;50.976;7.034;2023-04-06T00:01:27;0.40;99.90
30459;DHT22;17254;50.976;7.034;2023-04-06T00:01:34;0.40;99.90
30459;DHT22;17254;50.976;7.034;2023-04-06T00:01:40;0.40;99.90
30459;DHT22;17254;50.976;7.034;2023-04-06T00:01:47;0.40;99.90
30459;DHT22;17254;50.976;7.034;2023-04-06T00:01:54;0.50;99.90
30459;DHT22;17254;50.976;7.034;2023-04-06T00:02:00;0.50;99.90
30459;DHT22;17254;50.976;7.034;2023-04-06T00:02:06;0.50;99.90
30459;DHT22;17254;50.976;7.034;2023-04-06T00:02:12;0.60;99.90
30459;DHT22;17254;50.976;7.034;2023-04-06T00:02:18;0.60;99.90
30459;DHT22;17254;50.976;7.034;2023-04-06T00:02:24;0.60;99.90
30459;DHT22;17254;50.976;7.034;2023-04-06T00:02:30;0.60;99.90
30459;DHT22;17254;50.976;7.034;2023-04-06T00:02:37;0.50;99.90
30459;DHT22;17254;50.976;7.034;2023-04-06T00:02:43;0.60;99.90
30459;DHT22;17254;50.976;7.034;2023-04-06T00:02:49;0.50;99.90
30459;DHT22;17254;50.976;7.034;2023-04-06T00:02:55;0.50;99.90
30459;DHT22;17254;50.976;7.034;2023-04-06T00:03:01;0.50;99.90
30459;DHT22;17254;50.976;7.034;2023-04-06T00:03:07;0.50;99.90
30459;DHT22;17254;50.976;7.034;2023-04-06T00:03:13;0.50;99.90
30459;DHT22;17254;50.976;7.034;2023-04-06T00:03:20;0.50;99.90
30459;DHT22;17254;50.976;7.034;2023-04-06T00:03:26;0.50;99.90
30459;DHT22;17254;50.976;7.034;2023-04-06T00:03:33;0.50;99.90
30459;DHT22;17254;50.976;7.034;2023-04-06T00:03:39;0.50;99.90
30459;DHT22;17254;50.976;7.034;2023-04-06T00:03:45;0.50;99.90
30459;DHT22;17254;50.976;7.034;2023-04-06T00:03:51;0.50;99.90
30459;DHT22;17254;50.976;7.034;2023-04-06T00:03:57;0.50;99.90
30459;DHT22;17254;50.976;7.034;2023-04-06T00:04:04;0.50;99.90
30459;DHT22;17254;50.976;7.034;2023-04-06T00:04:10;0.50;99.90
30459;DHT22;17254;50.976;7.034;2023-04-06T00:04:16;0.50;99.90
30459;DHT22;17254;50.976;7.034;2023-04-06T00:04:22;0.50;99.90
30459;DHT22;17254;50.976;7.034;2023-04-06T00:04:28;0.50;99.90
30459;DHT22;17254;50.976;7.034;2023-04-06T00:04:34;0.50;99.90
30459;DHT22;17254;50.976;7.034;2023-04-06T00:04:40;0.40;99.90
30459;DHT22;17254;50.976;7.034;2023-04-06T00:04:46;0.40;99.90
30459;DHT22;17254;50.976;7.034;2023-04-06T00:04:53;0.40;99.90
30459;DHT22;17254;50.976;7.034;2023-04-06T00:04:59;0.50;99.90
30459;DHT22;17254;50.976;7.034;2023-04-06T00:05:05;0.50;99.90
30459;DHT22;17254;50.976;7.034;2023-04-06T00:05:13;0.50;99.90
30459;DHT22;17254;50.976;7.034;2023-04-06T00:05:19;0.50;99.90
30459;DHT22;17254;50.976;7.034;2023-04-06T00:05:25;0.50;99.90
30459;DHT22;17254;50.976;7.034;2023-04-06T00:05:33;0.50;99.90
30459;DHT22;17254;50.976;7.034;2023-04-06T00:05:39;0.50;99.90
30459;DHT22;17254;50.976;7.034;2023-04-06T00:05:47;0.50;99.90
30459;DHT22;17254;50.976;7.034;2023-04-06T00:05:53;0.50;99.90
30459;DHT22;17254;50.976;7.034;2023-04-06T00:05:59;0.50;99.90
30459;DHT22;17254;50.976;7.034;2023-04-06T00:06:05;0.50;99.90
30459;DHT22;17254;50.976;7.034;2023-04-06T00:06:11;0.50;99.90
30459;DHT22;17254;50.976;7.034;2023-04-06T00:06:17;0.40;99.90
30459;DHT22;17254;50.976;7.034;2023-04-06T00:06:23;0.40;99.90
30459;DHT22;17254;50.976;7.034;2023-04-06T00:06:29;0.40;99.90
30459;DHT22;17254;50.976;7.034;2023-04-06T00:06:36;0.40;99.90
30459;DHT22;17254;50.976;7.034;2023-04-06T00:06:42;0.40;99.90
30459;DHT22;17254;50.976;7.034;2023-04-06T00:06:49;0.50;99.90
30459;DHT22;17254;50.976;7.034;2023-04-06T00:06:55;0.50;99.90
30459;DHT22;17254;50.976;7.034;2023-04-06T00:07:02;0.50;99.90
30459;DHT22;17254;50.976;7.034;2023-04-06T00:07:08;0.50;99.90
30459;DHT22;17254;50.976;7.034;2023-04-06T00:07:14;0.50;99.90
30459;DHT22;17254;50.976;7.034;2023-04-06T00:07:20;0.50;99.90
30459;DHT22;17254;50.976;7.034;2023-04-06T00:07:26;0.50;99.90
30459;DHT22;17254;50.976;7.034;2023-04-06T00:07:34;0.50;99.90
30459;DHT22;17254;50.976;7.034;2023-04-06T00:07:40;0.60;99.90
30459;DHT22;17254;50.976;7.034;2023-04-06T00:07:46;0.60;99.90
30459;DHT22;17254;50.976;7.034;2023-04-06T00:07:52;0.50;99.90
30459;DHT22;17254;50.976;7.034;2023-04-06T00:07:59;0.60;99.90
30459;DHT22;17254;50.976;7.034;2023-04-06T00:08:07;0.50;99.90
30459;DHT22;17254;50.976;7.034;2023-04-06T00:08:13;0.50;99.90
30459;DHT22;17254;50.976;7.034;2023-04-06T00:08:19;0.50;99.90
30459;DHT22;17254;50.976;7.034;2023-04-06T00:08:27;0.50;99.90
30459;DHT22;17254;50.976;7.034;2023-04-06T00:08:34;0.50;99.90
30459;DHT22;17254;50.976;7.034;2023-04-06T00:08:40;0.40;99.90
30459;DHT22;17254;50.976;7.034;2023-04-06T00:08:47;0.40;99.90
30459;DHT22;17254;50.976;7.034;2023-04-06T00:08:53;0.40;99.90
30459;DHT22;17254;50.976;7.034;2023-04-06T00:08:59;0.40;99.90
30459;DHT22;17254;50.976;7.034;2023-04-06T00:09:06;0.30;99.90
30459;DHT22;17254;50.976;7.034;2023-04-06T00:09:12;0.40;99.90
30459;DHT22;17254;50.976;7.034;2023-04-06T00:09:18;0.30;99.90
30459;DHT22;17254;50.976;7.034;2023-04-06T00:09:24;0.30;99.90
30459;DHT22;17254;50.976;7.034;2023-04-06T00:09:30;0.30;99.90
30459;DHT22;17254;50.976;7.034;2023-04-06T00:09:36;0.30;99.90
30459;DHT22;17254;50.976;7.034;2023-04-06T00:09:42;0.30;99.90
30459;DHT22;17254;50.976;7.034;2023-04-06T00:09:48;0.30;99.90
30459;DHT22;17254;50.976;7.034;2023-04-06T00:09:55;0.20;99.90
30459;DHT22;17254;50.976;7.034;2023-04-06T00:10:02;0.20;99.90
30459;DHT22;17254;50.976;7.034;2023-04-06T00:10:09;0.20;99.90
30459;DHT22;17254;50.976;7.034;2023-04-06T00:10:16;0.20;99.90
30459;DHT22;17254;50.976;7.034;2023-04-06T00:10:22;0.20;99.90
30459;DHT22;17254;50.976;7.034;2023-04-06T00:10:28;0.30;99.90
30459;DHT22;17254;50.976;7.034;2023-04-06T00:10:34;0.30;99.90
30459;DHT22;17254;50.976;7.034;2023-04-06T00:10:41;0.30;99.90
30459;DHT22;17254;50.976;7.034;2023-04-06T00:10:47;0.20;99.90
30459;DHT22;17254;50.976;7.034;2023-04-06T00:10:53;0.20;99.90
30459;DHT22;17254;50.976;7.034;2023-04-06T00:10:59;0.30;99.90
30459;DHT22;17254;50.976;7.034;2023-04-06T00:11:05;0.30;99.90
30459;DHT22;17254;50.976;7.034;2023-04-06T00:11:11;0.30;99.90
30459;DHT22;17254;50.976;7.034;2023-04-06T00:11:19;0.30;99.90
30459;DHT22;17254;50.976;7.034;2023-04-06T00:11:25;0.30;99.90
30459;DHT22;17254;50.976;7.034;2023-04-06T00:11:32;0.30;99.90
30459;DHT22;17254;50.976;7.034;2023-04-06T00:11:38;0.40;99.90
30459;DHT22;17254;50.976;7.034;2023-04-06T00:11:44;0.30;99.90
30459;DHT22;17254;50.976;7.034;2023-04-06T00:11:51;0.40;99.90
30459;DHT22;17254;50.976;7.034;2023-04-06T00:11:57;0.30;99.90
30459;DHT22;17254;50.976;7.034;2023-04-06T00:12:03;0.40;99.90
30459;DHT22;17254;50.976;7.034;2023-04-06T00:12:09;0.40;99.90
30459;DHT22;17254;50.976;7.034;2023-04-06T00:12:15;0.40;99.90
30459;DHT22;17254;50.976;7.034;2023-04-06T00:12:21;0.40;99.90
30459;DHT22;17254;50.976;7.034;2023-04-06T00:12:28;0.50;99.90
30459;DHT22;17254;50.976;7.034;2023-04-06T00:12:34;0.50;99.90
30459;DHT22;17254;50.976;7.034;2023-04-06T00:12:40;0.50;99.90
30459;DHT22;17254;50.976;7.034;2023-04-06T00:12:49;0.50;99.90
30459;DHT22;17254;50.976;7.034;2023-04-06T00:12:55;0.60;99.90
30459;DHT22;17254;50.976;7.034;2023-04-06T00:13:02;0.60;99.90
30459;DHT22;17254;50.976;7.034;2023-04-06T00:13:09;0.60;99.90
30459;DHT22;17254;50.976;7.034;2023-04-06T00:13:16;0.60;99.90
30459;DHT22;17254;50.976;7.034;2023-04-06T00:13:22;0.50;99.90
30459;DHT22;17254;50.976;7.034;2023-04-06T00:13:28;0.50;99.90
30459;DHT22;17254;50.976;7.034;2023-04-06T00:13:34;0.50;99.90
30459;DHT22;17254;50.976;7.034;2023-04-06T00:13:41;0.60;99.90
30459;DHT22;17254;50.976;7.034;2023-04-06T00:13:47;0.50;99.90
30459;DHT22;17254;50.976;7.034;2023-04-06T00:13:53;0.50;99.90
30459;DHT22;17254;50.976;7.034;2023-04-06T00:13:59;0.50;99.90
30459;DHT22;17254;50.976;7.034;2023-04-06T00:14:06;0.50;99.90
30459;DHT22;17254;50.976;7.034;2023-04-06T00:14:12;0.40;99.90
30459;DHT22;17254;50.976;7.034;2023-04-06T00:14:19;0.40;99.90
30459;DHT22;17254;50.976;7.034;2023-04-06T00:14:25;0.40;99.90
30459;DHT22;17254;50.976;7.034;2023-04-06T00:14:31;0.40;99.90
30459;DHT22;17254;50.976;7.034;2023-04-06T00:14:37;0.40;99.90
30459;DHT22;17254;50.976;7.034;2023-04-06T00:14:43;0.40;99.90
30459;DHT22;17254;50.976;7.034;2023-04-06T00:14:50;0.40;99.90
30459;DHT22;17254;50.976;7.034;2023-04-06T00:14:56;0.40;99.90
30459;DHT22;17254;50.976;7.034;2023-04-06T00:15:03;0.40;99.90
30459;DHT22;17254;50.976;7.034;2023-04-06T00:15:11;0.40;99.90
30459;DHT22;17254;50.976;7.034;2023-04-06T00:15:17;0.40;99.90
30459;DHT22;17254;50.976;7.034;2023-04-06T00:15:23;0.40;99.90
30459;DHT22;17254;50.976;7.034;2023-04-06T00:15:29;0.40;99.90
30459;DHT22;17254;50.976;7.034;2023-04-06T00:15:35;0.40;99.90
30459;DHT22;17254;50.976;7.034;2023-04-06T00:15:41;0.40;99.90
30459;DHT22;17254;50.976;7.034;2023-04-06T00:15:47;0.30;99.90
30459;DHT22;17254;50.976;7.034;2023-04-06T00:15:54;0.30;99.90
30459;DHT22;17254;50.976;7.034;2023-04-06T00:16:00;0.30;99.90
30459;DHT22;17254;50.976;7.034;2023-04-06T00:16:06;0.30;99.90
30459;DHT22;17254;50.976;7.034;2023-04-06T00:16:12;0.30;99.90
30459;DHT22;17254;50.976;7.034;2023-04-06T00:16:20;0.30;99.90
30459;DHT22;17254;50.976;7.034;2023-04-06T00:16:26;0.20;99.90
30459;DHT22;17254;50.976;7.034;2023-04-06T00:16:32;0.30;99.90
30459;DHT22;17254;50.976;7.034;2023-04-06T00:16:38;0.30;99.90
30459;DHT22;17254;50.976;7.034;2023-04-06T00:16:44;0.30;99.90
30459;DHT22;17254;50.976;7.034;2023-04-06T00:16:50;0.20;99.90
30459;DHT22;17254;50.976;7.034;2023-04-06T00:16:56;0.30;99.90
30459;DHT22;17254;50.976;7.034;2023-04-06T00:17:02;0.20;99.90
30459;DHT22;17254;50.976;7.034;2023-04-06T00:17:09;0.30;99.90
30459;DHT22;17254;50.976;7.034;2023-04-06T00:17:15;0.30;99.90
30459;DHT22;17254;50.976;7.034;2023-04-06T00:17:21;0.30;99.90
30459;DHT22;17254;50.976;7.034;2023-04-06T00:17:27;0.30;99.90
30459;DHT22;17254;50.976;7.034;2023-04-06T00:17:33;0.30;99.90
30459;DHT22;17254;50.976;7.034;2023-04-06T00:17:40;0.30;99.90
30459;DHT22;17254;50.976;7.034;2023-04-06T00:17:46;0.30;99.90
30459;DHT22;17254;50.976;7.034;2023-04-06T00:17:52;0.30;99.90
30459;DHT22;17254;50.976;7.034;2023-04-06T00:17:59;0.40;99.90
30459;DHT22;17254;50.976;7.034;2023-04-06T00:18:06;0.40;99.90
30459;DHT22;17254;50.976;7.034;2023-04-06T00:18:12;0.40;99.90
30459;DHT22;17254;50.976;7.034;2023-04-06T00:18:18;0.40;99.90
30459;DHT22;17254;50.976;7.034;2023-04-06T00:18:25;0.40;99.90
30459;DHT22;17254;50.976;7.034;2023-04-06T00:18:32;0.40;99.90
30459;DHT22;17254;50.976;7.034;2023-04-06T00:18:38;0.50;99.90
30459;DHT22;17254;50.976;7.034;2023-04-06T00:18:44;0.50;99.90
30459;DHT22;17254;50.976;7.034;2023-04-06T00:18:50;0.50;99.90
30459;DHT22;17254;50.976;7.034;2023-04-06T00:18:56;0.50;99.90
30459;DHT22;17254;50.976;7.034;2023-04-06T00:19:04;0.60;99.90
30459;DHT22;17254;50.976;7.034;2023-04-06T00:19:10;0.50;99.90
30459;DHT22;17254;50.976;7.034;2023-04-06T00:19:16;0.50;99.90
30459;DHT22;17254;50.976;7.034;2023-04-06T00:19:25;0.60;99.90
30459;DHT22;17254;50.976;7.034;2023-04-06T00:19:32;0.50;99.90
30459;DHT22;17254;50.976;7.034;2023-04-06T00:19:39;0.50;99.90
30459;DHT22;17254;50.976;7.034;2023-04-06T00:19:44;0.60;99.90
30459;DHT22;17254;50.976;7.034;2023-04-06T00:19:51;0.60;99.90
30459;DHT22;17254;50.976;7.034;2023-04-06T00:19:57;0.60;99.90
30459;DHT22;17254;50.976;7.034;2023-04-06T00:20:04;0.60;99.90
30459;DHT22;17254;50.976;7.034;2023-04-06T00:20:11;0.50;99.90
30459;DHT22;17254;50.976;7.034;2023-04-06T00:20:17;0.50;99.90
30459;DHT22;17254;50.976;7.034;2023-04-06T00:20:24;0.50;99.90
30459;DHT22;17254;50.976;7.034;2023-04-06T00:20:30;0.50;99.90
30459;DHT22;17254;50.976;7.034;2023-04-06T00:20:37;0.50;99.90
30459;DHT22;17254;50.976;7.034;2023-04-06T00:20:43;0.50;99.90
30459;DHT22;17254;50.976;7.034;2023-04-06T00:20:48;0.50;99.90
30459;DHT22;17254;50.976;7.034;2023-04-06T00:20:56;0.40;99.90
30459;DHT22;17254;50.976;7.034;2023-04-06T00:21:03;0.40;99.90
30459;DHT22;17254;50.976;7.034;2023-04-06T00:21:11;0.40;99.90
30459;DHT22;17254;50.976;7.034;2023-04-06T00:21:18;0.40;99.90
30459;DHT22;17254;50.976;7.034;2023-04-06T00:21:25;0.30;99.90
30459;DHT22;17254;50.976;7.034;2023-04-06T00:21:31;0.30;99.90
30459;DHT22;17254;50.976;7.034;2023-04-06T00:21:37;0.30;99.90
30459;DHT22;17254;50.976;7.034;2023-04-06T00:21:44;0.40;99.90
30459;DHT22;17254;50.976;7.034;2023-04-06T00:21:50;0.40;99.90
30459;DHT22;17254;50.976;7.034;2023-04-06T00:21:56;0.40;99.90
30459;DHT22;17254;50.976;7.034;2023-04-06T00:22:02;0.40;99.90
30459;DHT22;17254;50.976;7.034;2023-04-06T00:22:08;0.40;99.90
30459;DHT22;17254;50.976;7.034;2023-04-06T00:22:15;0.40;99.90
30459;DHT22;17254;50.976;7.034;2023-04-06T00:22:21;0.50;99.90
30459;DHT22;17254;50.976;7.034;2023-04-06T00:22:27;0.50;99.90
30459;DHT22;17254;50.976;7.034;2023-04-06T00:22:34;0.50;99.90
30459;DHT22;17254;50.976;7.034;2023-04-06T00:22:40;0.50;99.90
30459;DHT22;17254;50.976;7.034;2023-04-06T00:22:46;0.50;99.90
30459;DHT22;17254;50.976;7.034;2023-04-06T00:22:52;0.50;99.90
30459;DHT22;17254;50.976;7.034;2023-04-06T00:22:59;0.50;99.90
30459;DHT22;17254;50.976;7.034;2023-04-06T00:23:05;0.50;99.90
30459;DHT22;17254;50.976;7.034;2023-04-06T00:23:11;0.50;99.90
30459;DHT22;17254;50.976;7.034;2023-04-06T00:23:17;0.50;99.90
30459;DHT22;17254;50.976;7.034;2023-04-06T00:23:24;0.50;99.90
30459;DHT22;17254;50.976;7.034;2023-04-06T00:23:30;0.50;99.90
30459;DHT22;17254;50.976;7.034;2023-04-06T00:23:36;0.50;99.90
30459;DHT22;17254;50.976;7.034;2023-04-06T00:23:42;0.50;99.90
30459;DHT22;17254;50.976;7.034;2023-04-06T00:23:48;0.50;99.90
30459;DHT22;17254;50.976;7.034;2023-04-06T00:23:54;0.50;99.90
30459;DHT22;17254;50.976;7.034;2023-04-06T00:24:00;0.50;99.90
30459;DHT22;17254;50.976;7.034;2023-04-06T00:24:07;0.50;99.90
30459;DHT22;17254;50.976;7.034;2023-04-06T00:24:13;0.50;99.90
30459;DHT22;17254;50.976;7.034;2023-04-06T00:24:20;0.50;99.90
30459;DHT22;17254;50.976;7.034;2023-04-06T00:24:27;0.50;99.90
30459;DHT22;17254;50.976;7.034;2023-04-06T00:24:33;0.40;99.90
30459;DHT22;17254;50.976;7.034;2023-04-06T00:24:39;0.40;99.90
30459;DHT22;17254;50.976;7.034;2023-04-06T00:24:45;0.40;99.90
30459;DHT22;17254;50.976;7.034;2023-04-06T00:24:51;0.40;99.90
30459;DHT22;17254;50.976;7.034;2023-04-06T00:24:57;0.40;99.90
30459;DHT22;17254;50.976;7.034;2023-04-06T00:25:04;0.50;99.90
30459;DHT22;17254;50.976;7.034;2023-04-06T00:25:10;0.40;99.90
30459;DHT22;17254;50.976;7.034;2023-04-06T00:25:17;0.50;99.90
30459;DHT22;17254;50.976;7.034;2023-04-06T00:25:23;0.50;99.90
30459;DHT22;17254;50.976;7.034;2023-04-06T00:25:29;0.50;99.90
30459;DHT22;17254;50.976;7.034;2023-04-06T00:25:35;0.50;99.90
30459;DHT22;17254;50.976;7.034;2023-04-06T00:25:41;0.40;99.90
30459;DHT22;17254;50.976;7.034;2023-04-06T00:25:48;0.40;99.90
30459;DHT22;17254;50.976;7.034;2023-04-06T00:25:55;0.40;99.90
30459;DHT22;17254;50.976;7.034;2023-04-06T00:26:01;0.40;99.90
30459;DHT22;17254;50.976;7.034;2023-04-06T00:26:08;0.40;99.90
30459;DHT22;17254;50.976;7.034;2023-04-06T00:26:14;0.40;99.90
30459;DHT22;17254;50.976;7.034;2023-04-06T00:26:26;0.40;99.90
30459;DHT22;17254;50.976;7.034;2023-04-06T00:26:34;0.30;99.90
30459;DHT22;17254;50.976;7.034;2023-04-06T00:26:41;0.30;99.90
30459;DHT22;17254;50.976;7.034;2023-04-06T00:26:47;0.30;99.90
30459;DHT22;17254;50.976;7.034;2023-04-06T00:26:53;0.30;99.90
30459;DHT22;17254;50.976;7.034;2023-04-06T00:26:59;0.30;99.90
30459;DHT22;17254;50.976;7.034;2023-04-06T00:27:06;0.30;99.90
30459;DHT22;17254;50.976;7.034;2023-04-06T00:27:12;0.30;99.90
30459;DHT22;17254;50.976;7.034;2023-04-06T00:27:18;0.20;99.90
30459;DHT22;17254;50.976;7.034;2023-04-06T00:27:26;0.30;99.90
30459;DHT22;17254;50.976;7.034;2023-04-06T00:27:32;0.30;99.90
30459;DHT22;17254;50.976;7.034;2023-04-06T00:27:38;0.30;99.90
30459;DHT22;17254;50.976;7.034;2023-04-06T00:27:44;0.30;99.90
30459;DHT22;17254;50.976;7.034;2023-04-06T00:27:50;0.30;99.90
30459;DHT22;17254;50.976;7.034;2023-04-06T00:27:59;0.30;99.90
30459;DHT22;17254;50.976;7.034;2023-04-06T00:28:05;0.30;99.90
30459;DHT22;17254;50.976;7.034;2023-04-06T00:28:11;0.20;99.90
30459;DHT22;17254;50.976;7.034;2023-04-06T00:28:17;0.30;99.90
30459;DHT22;17254;50.976;7.034;2023-04-06T00:28:26;0.20;99.90
30459;DHT22;17254;50.976;7.034;2023-04-06T00:28:34;0.30;99.90
30459;DHT22;17254;50.976;7.034;2023-04-06T00:28:40;0.20;99.90
30459;DHT22;17254;50.976;7.034;2023-04-06T00:28:46;0.20;99.90
30459;DHT22;17254;50.976;7.034;2023-04-06T00:28:55;0.20;99.90
30459;DHT22;17254;50.976;7.034;2023-04-06T00:29:01;0.20;99.90
30459;DHT22;17254;50.976;7.034;2023-04-06T00:29:08;0.20;99.90
30459;DHT22;17254;50.976;7.034;2023-04-06T00:29:14;0.10;99.90
30459;DHT22;17254;50.976;7.034;2023-04-06T00:29:21;0.20;99.90
30459;DHT22;17254;50.976;7.034;2023-04-06T00:29:27;0.10;99.90
30459;DHT22;17254;50.976;7.034;2023-04-06T00:29:33;0.10;99.90
30459;DHT22;17254;50.976;7.034;2023-04-06T00:29:40;0.10;99.90
30459;DHT22;17254;50.976;7.034;2023-04-06T00:29:46;0.10;99.90
30459;DHT22;17254;50.976;7.034;2023-04-06T00:29:52;0.10;99.90
30459;DHT22;17254;50.976;7.034;2023-04-06T00:29:58;0.10;99.90
30459;DHT22;17254;50.976;7.034;2023-04-06T00:30:05;0.10;99.90
30459;DHT22;17254;50.976;7.034;2023-04-06T00:30:12;0.00;99.90
30459;DHT22;17254;50.976;7.034;2023-04-06T00:30:19;0.10;99.90
30459;DHT22;17254;50.976;7.034;2023-04-06T00:30:25;0.00;99.90
30459;DHT22;17254;50.976;7.034;2023-04-06T00:30:31;0.00;99.90
30459;DHT22;17254;50.976;7.034;2023-04-06T00:30:37;0.00;99.90
30459;DHT22;17254;50.976;7.034;2023-04-06T00:30:43;0.00;99.90
30459;DHT22;17254;50.976;7.034;2023-04-06T00:30:49;0.00;99.90
30459;DHT22;17254;50.976;7.034;2023-04-06T00:30:55;0.00;99.90
30459;DHT22;17254;50.976;7.034;2023-04-06T00:31:02;0.00;99.90
30459;DHT22;17254;50.976;7.034;2023-04-06T00:31:08;-0.10;99.90
30459;DHT22;17254;50.976;7.034;2023-04-06T00:31:14;-0.10;99.90
30459;DHT22;17254;50.976;7.034;2023-04-06T00:31:20;-0.10;99.90
30459;DHT22;17254;50.976;7.034;2023-04-06T00:31:26;-0.10;99.90
30459;DHT22;17254;50.976;7.034;2023-04-06T00:31:32;-0.10;99.90
30459;DHT22;17254;50.976;7.034;2023-04-06T00:31:38;-0.10;99.90
30459;DHT22;17254;50.976;7.034;2023-04-06T00:31:44;-0.10;99.90
30459;DHT22;17254;50.976;7.034;2023-04-06T00:31:50;-0.10;99.90
30459;DHT22;17254;50.976;7.034;2023-04-06T00:31:56;-0.10;99.90
30459;DHT22;17254;50.976;7.034;2023-04-06T00:32:02;-0.10;99.90
30459;DHT22;17254;50.976;7.034;2023-04-06T00:32:10;-0.10;99.90
30459;DHT22;17254;50.976;7.034;2023-04-06T00:32:16;-0.10;99.90
30459;DHT22;17254;50.976;7.034;2023-04-06T00:32:22;-0.10;99.90
30459;DHT22;17254;50.976;7.034;2023-04-06T00:32:28;-0.10;99.90
30459;DHT22;17254;50.976;7.034;2023-04-06T00:32:34;0.00;99.90
30459;DHT22;17254;50.976;7.034;2023-04-06T00:32:41;-0.10;99.90
30459;DHT22;17254;50.976;7.034;2023-04-06T00:32:47;-0.10;99.90
30459;DHT22;17254;50.976;7.034;2023-04-06T00:32:53;-0.10;99.90
30459;DHT22;17254;50.976;7.034;2023-04-06T00:32:59;-0.10;99.90
30459;DHT22;17254;50.976;7.034;2023-04-06T00:33:06;-0.10;99.90
30459;DHT22;17254;50.976;7.034;2023-04-06T00:33:12;-0.10;99.90
30459;DHT22;17254;50.976;7.034;2023-04-06T00:33:18;-0.10;99.90
30459;DHT22;17254;50.976;7.034;2023-04-06T00:33:24;-0.10;99.90
30459;DHT22;17254;50.976;7.034;2023-04-06T00:33:30;-0.10;99.90
30459;DHT22;17254;50.976;7.034;2023-04-06T00:33:36;-0.20;99.90
30459;DHT22;17254;50.976;7.034;2023-04-06T00:33:42;-0.10;99.90
30459;DHT22;17254;50.976;7.034;2023-04-06T00:33:50;-0.10;99.90
30459;DHT22;17254;50.976;7.034;2023-04-06T00:33:57;-0.10;99.90
30459;DHT22;17254;50.976;7.034;2023-04-06T00:34:03;-0.20;99.90
30459;DHT22;17254;50.976;7.034;2023-04-06T00:34:09;-0.10;99.90
30459;DHT22;17254;50.976;7.034;2023-04-06T00:34:16;-0.10;99.90
30459;DHT22;17254;50.976;7.034;2023-04-06T00:34:22;-0.20;99.90
30459;DHT22;17254;50.976;7.034;2023-04-06T00:34:28;-0.20;99.90
30459;DHT22;17254;50.976;7.034;2023-04-06T00:34:34;-0.10;99.90
30459;DHT22;17254;50.976;7.034;2023-04-06T00:34:40;-0.20;99.90
30459;DHT22;17254;50.976;7.034;2023-04-06T00:34:46;-0.20;99.90
30459;DHT22;17254;50.976;7.034;2023-04-06T00:34:52;-0.20;99.90
30459;DHT22;17254;50.976;7.034;2023-04-06T00:34:59;-0.20;99.90
30459;DHT22;17254;50.976;7.034;2023-04-06T00:35:06;-0.10;99.90
30459;DHT22;17254;50.976;7.034;2023-04-06T00:35:12;-0.20;99.90
30459;DHT22;17254;50.976;7.034;2023-04-06T00:35:20;-0.10;99.90
30459;DHT22;17254;50.976;7.034;2023-04-06T00:35:26;-0.10;99.90
30459;DHT22;17254;50.976;7.034;2023-04-06T00:35:32;-0.10;99.90
30459;DHT22;17254;50.976;7.034;2023-04-06T00:35:39;0.00;99.90
30459;DHT22;17254;50.976;7.034;2023-04-06T00:35:45;0.00;99.90
30459;DHT22;17254;50.976;7.034;2023-04-06T00:35:51;-0.10;99.90
30459;DHT22;17254;50.976;7.034;2023-04-06T00:35:57;0.00;99.90
30459;DHT22;17254;50.976;7.034;2023-04-06T00:36:04;-0.10;99.90
30459;DHT22;17254;50.976;7.034;2023-04-06T00:36:11;0.00;99.90
30459;DHT22;17254;50.976;7.034;2023-04-06T00:36:17;-0.10;99.90
30459;DHT22;17254;50.976;7.034;2023-04-06T00:36:23;-0.10;99.90
30459;DHT22;17254;50.976;7.034;2023-04-06T00:36:29;-0.10;99.90
30459;DHT22;17254;50.976;7.034;2023-04-06T00:36:36;-0.10;99.90
30459;DHT22;17254;50.976;7.034;2023-04-06T00:36:42;-0.10;99.90
30459;DHT22;17254;50.976;7.034;2023-04-06T00:36:48;-0.10;99.90
30459;DHT22;17254;50.976;7.034;2023-04-06T00:36:54;-0.10;99.90
30459;DHT22;17254;50.976;7.034;2023-04-06T00:37:00;-0.10;99.90
30459;DHT22;17254;50.976;7.034;2023-04-06T00:37:07;0.00;99.90
30459;DHT22;17254;50.976;7.034;2023-04-06T00:37:13;-0.10;99.90
30459;DHT22;17254;50.976;7.034;2023-04-06T00:37:19;-0.10;99.90
30459;DHT22;17254;50.976;7.034;2023-04-06T00:37:25;0.00;99.90
30459;DHT22;17254;50.976;7.034;2023-04-06T00:37:32;0.00;99.90
30459;DHT22;17254;50.976;7.034;2023-04-06T00:37:38;0.00;99.90
30459;DHT22;17254;50.976;7.034;2023-04-06T00:37:46;0.00;99.90
30459;DHT22;17254;50.976;7.034;2023-04-06T00:37:52;0.00;99.90
30459;DHT22;17254;50.976;7.034;2023-04-06T00:37:58;0.10;99.90
30459;DHT22;17254;50.976;7.034;2023-04-06T00:38:05;0.10;99.90
30459;DHT22;17254;50.976;7.034;2023-04-06T00:38:12;0.10;99.90
30459;DHT22;17254;50.976;7.034;2023-04-06T00:38:18;0.10;99.90
30459;DHT22;17254;50.976;7.034;2023-04-06T00:38:24;0.10;99.90
30459;DHT22;17254;50.976;7.034;2023-04-06T00:38:30;0.10;99.90
30459;DHT22;17254;50.976;7.034;2023-04-06T00:38:36;0.20;99.90
30459;DHT22;17254;50.976;7.034;2023-04-06T00:38:42;0.20;99.90
30459;DHT22;17254;50.976;7.034;2023-04-06T00:38:48;0.20;99.90
30459;DHT22;17254;50.976;7.034;2023-04-06T00:38:55;0.20;99.90
30459;DHT22;17254;50.976;7.034;2023-04-06T00:39:02;0.10;99.90
30459;DHT22;17254;50.976;7.034;2023-04-06T00:39:08;0.20;99.90
30459;DHT22;17254;50.976;7.034;2023-04-06T00:39:14;0.10;99.90
30459;DHT22;17254;50.976;7.034;2023-04-06T00:39:20;0.10;99.90
30459;DHT22;17254;50.976;7.034;2023-04-06T00:39:26;0.10;99.90
30459;DHT22;17254;50.976;7.034;2023-04-06T00:39:32;0.10;99.90
30459;DHT22;17254;50.976;7.034;2023-04-06T00:39:38;0.10;99.90
30459;DHT22;17254;50.976;7.034;2023-04-06T00:39:44;0.10;99.90
30459;DHT22;17254;50.976;7.034;2023-04-06T00:39:50;0.10;99.90
30459;DHT22;17254;50.976;7.034;2023-04-06T00:39:57;0.00;99.90
30459;DHT22;17254;50.976;7.034;2023-04-06T00:40:04;0.00;99.90
30459;DHT22;17254;50.976;7.034;2023-04-06T00:40:10;0.00;99.90
30459;DHT22;17254;50.976;7.034;2023-04-06T00:40:16;0.00;99.90
30459;DHT22;17254;50.976;7.034;2023-04-06T00:40:23;0.00;99.90
30459;DHT22;17254;50.976;7.034;2023-04-06T00:40:30;0.00;99.90
30459;DHT22;17254;50.976;7.034;2023-04-06T00:40:36;0.00;99.90
30459;DHT22;17254;50.976;7.034;2023-04-06T00:40:43;0.00;99.90
30459;DHT22;17254;50.976;7.034;2023-04-06T00:40:50;0.00;99.90
30459;DHT22;17254;50.976;7.034;2023-04-06T00:40:56;0.10;99.90
30459;DHT22;17254;50.976;7.034;2023-04-06T00:41:03;0.00;99.90
30459;DHT22;17254;50.976;7.034;2023-04-06T00:41:10;0.10;99.90